Corpus Christi, Texas
Current Conditions -  °F | °C
As of 5:51 PM on Thursday 27 Nov 2014 (Local Time) from KCRP Reporting Station
Few Clouds Few Clouds  
Wind Chill: 62°   Ceiling: Unl
Heat Index: 62°   Visibility: 10mi
Dew Point: 55°   Wind: 12mph
Humidity: 78%   Direction: 70°ENE
Pressure: 30.38"   Gusts: NA
Location:  27.8°N, 97.4°W
Report Text: KCRP 272351Z 07010KT 10SM FEW060 17/13 A3038 RMK AO2 SLP289 T01670128 10217 20167 53002 $
Loading
Personal Weather Stations






























Interactive Weather Map New forecast layout! Learn more

10-Day Weather Forecast

Advertisements
Track Severe Weather on mobile